sensor_id;sensor_type;location;lat;lon;timestamp;P1;durP1;ratioP1;P2;durP2;ratioP2
12585;SDS011;6358;50.760;0.282;2023-04-01T00:01:43;3.03;;;1.33;;
12585;SDS011;6358;50.760;0.282;2023-04-01T00:04:09;1.83;;;1.10;;
12585;SDS011;6358;50.760;0.282;2023-04-01T00:06:35;3.10;;;1.47;;
12585;SDS011;6358;50.760;0.282;2023-04-01T00:09:01;1.50;;;1.00;;
12585;SDS011;6358;50.760;0.282;2023-04-01T00:11:27;3.83;;;1.10;;
12585;SDS011;6358;50.760;0.282;2023-04-01T00:13:54;2.30;;;1.20;;
12585;SDS011;6358;50.760;0.282;2023-04-01T00:16:21;2.27;;;1.43;;
12585;SDS011;6358;50.760;0.282;2023-04-01T00:18:47;2.30;;;1.40;;
12585;SDS011;6358;50.760;0.282;2023-04-01T00:21:14;1.93;;;1.30;;
12585;SDS011;6358;50.760;0.282;2023-04-01T00:23:41;2.60;;;1.30;;
12585;SDS011;6358;50.760;0.282;2023-04-01T00:26:07;2.07;;;1.17;;
12585;SDS011;6358;50.760;0.282;2023-04-01T00:28:33;2.70;;;1.20;;
12585;SDS011;6358;50.760;0.282;2023-04-01T00:31:04;3.17;;;1.73;;
12585;SDS011;6358;50.760;0.282;2023-04-01T00:33:31;2.23;;;1.30;;
12585;SDS011;6358;50.760;0.282;2023-04-01T00:36:05;2.33;;;1.10;;
12585;SDS011;6358;50.760;0.282;2023-04-01T00:38:31;2.50;;;1.43;;
12585;SDS011;6358;50.760;0.282;2023-04-01T00:40:57;2.00;;;1.03;;
12585;SDS011;6358;50.760;0.282;2023-04-01T00:43:25;1.80;;;1.20;;
12585;SDS011;6358;50.760;0.282;2023-04-01T00:45:51;2.50;;;1.40;;
12585;SDS011;6358;50.760;0.282;2023-04-01T00:48:18;3.53;;;1.33;;
12585;SDS011;6358;50.760;0.282;2023-04-01T00:50:47;2.83;;;1.13;;
12585;SDS011;6358;50.760;0.282;2023-04-01T00:53:15;2.43;;;1.20;;
12585;SDS011;6358;50.760;0.282;2023-04-01T00:55:43;1.80;;;1.00;;
12585;SDS011;6358;50.760;0.282;2023-04-01T00:58:13;1.73;;;1.00;;
12585;SDS011;6358;50.760;0.282;2023-04-01T01:00:39;2.43;;;1.33;;
12585;SDS011;6358;50.760;0.282;2023-04-01T01:03:06;2.10;;;1.20;;
12585;SDS011;6358;50.760;0.282;2023-04-01T01:05:45;2.23;;;1.10;;
12585;SDS011;6358;50.760;0.282;2023-04-01T01:08:15;2.47;;;1.33;;
12585;SDS011;6358;50.760;0.282;2023-04-01T01:10:43;2.73;;;1.23;;
12585;SDS011;6358;50.760;0.282;2023-04-01T01:15:58;2.13;;;1.10;;
12585;SDS011;6358;50.760;0.282;2023-04-01T01:18:49;1.50;;;1.00;;
12585;SDS011;6358;50.760;0.282;2023-04-01T01:21:22;2.97;;;1.00;;
12585;SDS011;6358;50.760;0.282;2023-04-01T01:26:48;3.00;;;1.40;;
12585;SDS011;6358;50.760;0.282;2023-04-01T01:36:59;1.63;;;1.10;;
12585;SDS011;6358;50.760;0.282;2023-04-01T01:39:27;1.83;;;1.20;;
12585;SDS011;6358;50.760;0.282;2023-04-01T01:41:56;0.93;;;0.90;;
12585;SDS011;6358;50.760;0.282;2023-04-01T01:44:23;1.97;;;1.10;;
12585;SDS011;6358;50.760;0.282;2023-04-01T01:46:49;2.60;;;1.30;;
12585;SDS011;6358;50.760;0.282;2023-04-01T01:49:16;1.33;;;1.03;;
12585;SDS011;6358;50.760;0.282;2023-04-01T01:51:43;2.60;;;1.27;;
12585;SDS011;6358;50.760;0.282;2023-04-01T01:54:13;1.30;;;0.90;;
12585;SDS011;6358;50.760;0.282;2023-04-01T01:56:39;1.67;;;1.10;;
12585;SDS011;6358;50.760;0.282;2023-04-01T01:59:08;1.77;;;1.00;;
12585;SDS011;6358;50.760;0.282;2023-04-01T02:01:37;2.43;;;1.10;;
12585;SDS011;6358;50.760;0.282;2023-04-01T02:04:05;2.27;;;1.30;;
12585;SDS011;6358;50.760;0.282;2023-04-01T02:06:32;1.63;;;1.07;;
12585;SDS011;6358;50.760;0.282;2023-04-01T02:09:00;1.23;;;1.10;;
12585;SDS011;6358;50.760;0.282;2023-04-01T02:11:32;2.30;;;1.10;;
12585;SDS011;6358;50.760;0.282;2023-04-01T02:14:05;1.40;;;1.00;;
12585;SDS011;6358;50.760;0.282;2023-04-01T02:16:34;1.10;;;0.83;;
12585;SDS011;6358;50.760;0.282;2023-04-01T02:19:02;1.70;;;1.10;;
12585;SDS011;6358;50.760;0.282;2023-04-01T02:21:32;2.30;;;1.17;;
12585;SDS011;6358;50.760;0.282;2023-04-01T02:23:59;1.70;;;1.13;;
12585;SDS011;6358;50.760;0.282;2023-04-01T02:26:26;1.90;;;0.97;;
12585;SDS011;6358;50.760;0.282;2023-04-01T02:28:53;3.17;;;1.07;;
12585;SDS011;6358;50.760;0.282;2023-04-01T02:31:19;1.83;;;1.20;;
12585;SDS011;6358;50.760;0.282;2023-04-01T02:33:46;2.23;;;1.10;;
12585;SDS011;6358;50.760;0.282;2023-04-01T02:36:13;2.63;;;1.20;;
12585;SDS011;6358;50.760;0.282;2023-04-01T02:38:39;1.20;;;1.10;;
12585;SDS011;6358;50.760;0.282;2023-04-01T02:41:06;2.93;;;1.00;;
12585;SDS011;6358;50.760;0.282;2023-04-01T02:43:32;3.10;;;1.13;;
12585;SDS011;6358;50.760;0.282;2023-04-01T02:45:58;1.90;;;1.10;;
12585;SDS011;6358;50.760;0.282;2023-04-01T02:48:24;1.97;;;1.10;;
12585;SDS011;6358;50.760;0.282;2023-04-01T02:50:50;1.87;;;1.10;;
12585;SDS011;6358;50.760;0.282;2023-04-01T02:53:17;2.97;;;1.20;;
12585;SDS011;6358;50.760;0.282;2023-04-01T02:55:43;2.00;;;1.10;;
12585;SDS011;6358;50.760;0.282;2023-04-01T02:58:10;1.73;;;1.10;;
12585;SDS011;6358;50.760;0.282;2023-04-01T03:00:36;1.67;;;1.20;;
12585;SDS011;6358;50.760;0.282;2023-04-01T03:03:02;1.33;;;1.00;;
12585;SDS011;6358;50.760;0.282;2023-04-01T03:05:28;2.37;;;1.20;;
12585;SDS011;6358;50.760;0.282;2023-04-01T03:07:55;1.70;;;1.17;;
12585;SDS011;6358;50.760;0.282;2023-04-01T03:10:21;1.87;;;1.20;;
12585;SDS011;6358;50.760;0.282;2023-04-01T03:12:47;1.87;;;1.00;;
12585;SDS011;6358;50.760;0.282;2023-04-01T03:15:13;2.47;;;1.27;;
12585;SDS011;6358;50.760;0.282;2023-04-01T03:17:40;1.50;;;1.00;;
12585;SDS011;6358;50.760;0.282;2023-04-01T03:20:07;1.90;;;0.93;;
12585;SDS011;6358;50.760;0.282;2023-04-01T03:22:34;1.87;;;1.00;;
12585;SDS011;6358;50.760;0.282;2023-04-01T03:25:01;0.90;;;0.87;;
12585;SDS011;6358;50.760;0.282;2023-04-01T03:27:27;2.33;;;1.20;;
12585;SDS011;6358;50.760;0.282;2023-04-01T03:29:54;1.80;;;1.00;;
12585;SDS011;6358;50.760;0.282;2023-04-01T03:32:20;1.87;;;0.90;;
12585;SDS011;6358;50.760;0.282;2023-04-01T03:34:46;1.80;;;1.10;;
12585;SDS011;6358;50.760;0.282;2023-04-01T03:37:12;1.70;;;1.30;;
12585;SDS011;6358;50.760;0.282;2023-04-01T03:39:38;2.43;;;1.10;;
12585;SDS011;6358;50.760;0.282;2023-04-01T03:42:05;1.53;;;1.20;;
12585;SDS011;6358;50.760;0.282;2023-04-01T03:44:32;1.83;;;1.20;;
12585;SDS011;6358;50.760;0.282;2023-04-01T03:46:58;1.47;;;1.10;;
12585;SDS011;6358;50.760;0.282;2023-04-01T03:49:25;1.90;;;1.10;;
12585;SDS011;6358;50.760;0.282;2023-04-01T03:51:51;2.37;;;1.10;;
12585;SDS011;6358;50.760;0.282;2023-04-01T03:54:17;2.40;;;1.00;;
12585;SDS011;6358;50.760;0.282;2023-04-01T03:56:45;1.97;;;0.93;;
12585;SDS011;6358;50.760;0.282;2023-04-01T03:59:11;1.83;;;1.07;;
12585;SDS011;6358;50.760;0.282;2023-04-01T04:01:37;1.20;;;0.97;;
12585;SDS011;6358;50.760;0.282;2023-04-01T04:04:03;1.87;;;1.03;;
12585;SDS011;6358;50.760;0.282;2023-04-01T04:06:30;2.43;;;1.03;;
12585;SDS011;6358;50.760;0.282;2023-04-01T04:08:56;1.83;;;1.20;;
12585;SDS011;6358;50.760;0.282;2023-04-01T04:11:22;1.20;;;0.93;;
12585;SDS011;6358;50.760;0.282;2023-04-01T04:13:48;2.70;;;1.10;;
12585;SDS011;6358;50.760;0.282;2023-04-01T04:16:15;2.00;;;1.03;;
12585;SDS011;6358;50.760;0.282;2023-04-01T04:18:42;2.23;;;1.10;;
12585;SDS011;6358;50.760;0.282;2023-04-01T04:21:11;1.77;;;1.20;;
12585;SDS011;6358;50.760;0.282;2023-04-01T04:23:38;1.17;;;0.90;;
12585;SDS011;6358;50.760;0.282;2023-04-01T04:26:05;2.43;;;1.20;;
12585;SDS011;6358;50.760;0.282;2023-04-01T04:28:32;1.50;;;0.97;;
12585;SDS011;6358;50.760;0.282;2023-04-01T04:30:58;1.20;;;1.00;;
12585;SDS011;6358;50.760;0.282;2023-04-01T04:33:24;1.63;;;0.93;;
12585;SDS011;6358;50.760;0.282;2023-04-01T04:35:51;2.00;;;1.00;;
12585;SDS011;6358;50.760;0.282;2023-04-01T04:38:17;1.43;;;1.07;;
12585;SDS011;6358;50.760;0.282;2023-04-01T04:40:43;1.00;;;0.70;;
12585;SDS011;6358;50.760;0.282;2023-04-01T04:43:10;0.97;;;0.87;;
12585;SDS011;6358;50.760;0.282;2023-04-01T04:45:36;1.97;;;1.00;;
12585;SDS011;6358;50.760;0.282;2023-04-01T04:48:02;0.93;;;0.80;;
12585;SDS011;6358;50.760;0.282;2023-04-01T04:50:28;1.00;;;0.80;;
12585;SDS011;6358;50.760;0.282;2023-04-01T04:52:55;1.27;;;0.90;;
12585;SDS011;6358;50.760;0.282;2023-04-01T04:55:21;1.63;;;0.83;;
12585;SDS011;6358;50.760;0.282;2023-04-01T04:57:47;1.60;;;0.70;;
12585;SDS011;6358;50.760;0.282;2023-04-01T05:00:13;1.90;;;1.10;;
12585;SDS011;6358;50.760;0.282;2023-04-01T05:02:40;1.07;;;0.90;;
12585;SDS011;6358;50.760;0.282;2023-04-01T05:05:06;1.10;;;0.90;;
12585;SDS011;6358;50.760;0.282;2023-04-01T05:07:32;2.80;;;1.00;;
12585;SDS011;6358;50.760;0.282;2023-04-01T05:09:58;1.93;;;1.23;;
12585;SDS011;6358;50.760;0.282;2023-04-01T05:12:25;1.47;;;1.00;;
12585;SDS011;6358;50.760;0.282;2023-04-01T05:14:51;3.40;;;1.10;;
12585;SDS011;6358;50.760;0.282;2023-04-01T05:17:17;0.93;;;0.90;;
12585;SDS011;6358;50.760;0.282;2023-04-01T05:19:43;1.23;;;0.97;;
12585;SDS011;6358;50.760;0.282;2023-04-01T05:22:09;2.50;;;1.10;;
12585;SDS011;6358;50.760;0.282;2023-04-01T05:24:36;0.90;;;0.73;;
12585;SDS011;6358;50.760;0.282;2023-04-01T05:27:02;2.20;;;0.93;;
12585;SDS011;6358;50.760;0.282;2023-04-01T05:29:28;1.70;;;0.93;;
12585;SDS011;6358;50.760;0.282;2023-04-01T05:31:54;1.57;;;0.90;;
12585;SDS011;6358;50.760;0.282;2023-04-01T05:34:20;3.03;;;0.90;;
12585;SDS011;6358;50.760;0.282;2023-04-01T05:36:46;1.00;;;0.90;;
12585;SDS011;6358;50.760;0.282;2023-04-01T05:39:12;1.60;;;1.10;;
12585;SDS011;6358;50.760;0.282;2023-04-01T05:41:38;1.33;;;1.03;;
12585;SDS011;6358;50.760;0.282;2023-04-01T05:44:05;1.00;;;0.90;;
12585;SDS011;6358;50.760;0.282;2023-04-01T05:46:31;1.87;;;1.00;;
12585;SDS011;6358;50.760;0.282;2023-04-01T05:48:57;1.23;;;0.90;;
12585;SDS011;6358;50.760;0.282;2023-04-01T05:51:23;1.47;;;1.10;;
12585;SDS011;6358;50.760;0.282;2023-04-01T05:53:50;1.73;;;1.00;;
12585;SDS011;6358;50.760;0.282;2023-04-01T05:56:16;3.03;;;1.20;;
12585;SDS011;6358;50.760;0.282;2023-04-01T05:58:42;2.27;;;1.20;;
12585;SDS011;6358;50.760;0.282;2023-04-01T06:01:09;2.13;;;1.10;;
12585;SDS011;6358;50.760;0.282;2023-04-01T06:03:35;1.33;;;0.90;;
12585;SDS011;6358;50.760;0.282;2023-04-01T06:06:02;1.80;;;1.00;;
12585;SDS011;6358;50.760;0.282;2023-04-01T06:08:29;1.33;;;0.93;;
12585;SDS011;6358;50.760;0.282;2023-04-01T06:16:00;2.00;;;0.80;;
12585;SDS011;6358;50.760;0.282;2023-04-01T06:18:43;1.37;;;0.87;;
12585;SDS011;6358;50.760;0.282;2023-04-01T06:24:10;2.03;;;0.93;;
12585;SDS011;6358;50.760;0.282;2023-04-01T06:29:18;1.13;;;0.97;;
12585;SDS011;6358;50.760;0.282;2023-04-01T06:42:21;1.90;;;0.80;;
12585;SDS011;6358;50.760;0.282;2023-04-01T06:52:39;1.00;;;0.80;;
12585;SDS011;6358;50.760;0.282;2023-04-01T06:55:25;0.70;;;0.70;;
12585;SDS011;6358;50.760;0.282;2023-04-01T06:57:53;0.50;;;0.50;;
12585;SDS011;6358;50.760;0.282;2023-04-01T07:00:31;0.87;;;0.70;;
12585;SDS011;6358;50.760;0.282;2023-04-01T07:03:14;0.87;;;0.73;;
12585;SDS011;6358;50.760;0.282;2023-04-01T07:05:43;0.70;;;0.70;;
12585;SDS011;6358;50.760;0.282;2023-04-01T07:08:10;0.97;;;0.70;;
12585;SDS011;6358;50.760;0.282;2023-04-01T07:10:47;1.40;;;0.70;;
12585;SDS011;6358;50.760;0.282;2023-04-01T07:15:55;0.90;;;0.87;;
12585;SDS011;6358;50.760;0.282;2023-04-01T07:18:25;1.33;;;0.80;;
12585;SDS011;6358;50.760;0.282;2023-04-01T07:20:54;1.23;;;0.77;;
12585;SDS011;6358;50.760;0.282;2023-04-01T07:23:36;0.60;;;0.50;;
12585;SDS011;6358;50.760;0.282;2023-04-01T07:26:11;0.80;;;0.53;;
12585;SDS011;6358;50.760;0.282;2023-04-01T07:28:39;3.20;;;0.60;;
12585;SDS011;6358;50.760;0.282;2023-04-01T07:33:56;2.73;;;0.80;;
12585;SDS011;6358;50.760;0.282;2023-04-01T07:44:21;2.00;;;0.90;;
12585;SDS011;6358;50.760;0.282;2023-04-01T07:46:59;2.17;;;1.00;;
12585;SDS011;6358;50.760;0.282;2023-04-01T07:49:29;1.27;;;0.70;;
12585;SDS011;6358;50.760;0.282;2023-04-01T08:00:36;2.97;;;0.63;;
12585;SDS011;6358;50.760;0.282;2023-04-01T08:05:40;2.13;;;0.70;;
12585;SDS011;6358;50.760;0.282;2023-04-01T08:13:09;1.20;;;0.60;;
12585;SDS011;6358;50.760;0.282;2023-04-01T08:15:48;2.10;;;0.60;;
12585;SDS011;6358;50.760;0.282;2023-04-01T08:18:33;4.33;;;1.00;;
12585;SDS011;6358;50.760;0.282;2023-04-01T08:21:02;2.87;;;0.77;;
12585;SDS011;6358;50.760;0.282;2023-04-01T08:23:33;2.83;;;0.80;;
12585;SDS011;6358;50.760;0.282;2023-04-01T08:26:03;4.20;;;1.30;;
12585;SDS011;6358;50.760;0.282;2023-04-01T08:28:36;6.93;;;1.97;;
12585;SDS011;6358;50.760;0.282;2023-04-01T08:31:10;4.20;;;2.53;;
12585;SDS011;6358;50.760;0.282;2023-04-01T08:33:38;6.80;;;2.57;;
12585;SDS011;6358;50.760;0.282;2023-04-01T08:36:07;7.40;;;2.90;;
12585;SDS011;6358;50.760;0.282;2023-04-01T08:38:42;6.37;;;2.80;;
12585;SDS011;6358;50.760;0.282;2023-04-01T08:41:15;3.80;;;2.90;;
12585;SDS011;6358;50.760;0.282;2023-04-01T08:49:36;7.67;;;2.57;;
12585;SDS011;6358;50.760;0.282;2023-04-01T08:52:18;4.77;;;2.67;;
12585;SDS011;6358;50.760;0.282;2023-04-01T09:00:07;4.13;;;2.30;;
12585;SDS011;6358;50.760;0.282;2023-04-01T09:13:02;3.60;;;2.00;;
12585;SDS011;6358;50.760;0.282;2023-04-01T09:30:32;3.23;;;1.90;;
12585;SDS011;6358;50.760;0.282;2023-04-01T09:38:23;3.37;;;1.60;;
12585;SDS011;6358;50.760;0.282;2023-04-01T09:48:24;2.87;;;1.50;;
12585;SDS011;6358;50.760;0.282;2023-04-01T10:21:59;1.87;;;1.17;;
12585;SDS011;6358;50.760;0.282;2023-04-01T10:24:33;2.20;;;1.20;;
12585;SDS011;6358;50.760;0.282;2023-04-01T10:27:10;2.70;;;1.10;;
12585;SDS011;6358;50.760;0.282;2023-04-01T10:35:02;1.63;;;1.10;;
12585;SDS011;6358;50.760;0.282;2023-04-01T11:01:15;2.53;;;2.33;;
12585;SDS011;6358;50.760;0.282;2023-04-01T11:03:46;3.47;;;2.10;;
12585;SDS011;6358;50.760;0.282;2023-04-01T11:29:49;1.53;;;1.40;;
12585;SDS011;6358;50.760;0.282;2023-04-01T11:37:29;1.50;;;1.40;;
12585;SDS011;6358;50.760;0.282;2023-04-01T11:45:20;2.07;;;1.40;;
12585;SDS011;6358;50.760;0.282;2023-04-01T11:50:17;1.33;;;1.20;;
12585;SDS011;6358;50.760;0.282;2023-04-01T11:53:09;2.37;;;1.37;;
12585;SDS011;6358;50.760;0.282;2023-04-01T11:55:47;5.53;;;1.53;;
12585;SDS011;6358;50.760;0.282;2023-04-01T12:01:10;4.17;;;1.73;;
12585;SDS011;6358;50.760;0.282;2023-04-01T12:06:34;5.50;;;1.50;;
12585;SDS011;6358;50.760;0.282;2023-04-01T12:19:39;5.17;;;1.37;;
12585;SDS011;6358;50.760;0.282;2023-04-01T12:34:51;3.60;;;1.40;;
12585;SDS011;6358;50.760;0.282;2023-04-01T12:42:39;4.93;;;1.20;;
12585;SDS011;6358;50.760;0.282;2023-04-01T12:55:38;5.10;;;1.43;;
12585;SDS011;6358;50.760;0.282;2023-04-01T13:16:29;2.80;;;1.10;;
12585;SDS011;6358;50.760;0.282;2023-04-01T13:23:53;3.20;;;1.00;;
12585;SDS011;6358;50.760;0.282;2023-04-01T13:26:28;2.40;;;1.00;;
12585;SDS011;6358;50.760;0.282;2023-04-01T13:28:59;2.00;;;1.30;;
12585;SDS011;6358;50.760;0.282;2023-04-01T13:31:40;1.20;;;0.87;;
12585;SDS011;6358;50.760;0.282;2023-04-01T13:39:19;3.03;;;1.10;;
12585;SDS011;6358;50.760;0.282;2023-04-01T13:44:19;1.90;;;1.00;;
12585;SDS011;6358;50.760;0.282;2023-04-01T13:46:53;2.57;;;0.90;;
12585;SDS011;6358;50.760;0.282;2023-04-01T13:51:58;1.90;;;1.07;;
12585;SDS011;6358;50.760;0.282;2023-04-01T14:07:37;1.47;;;1.00;;
12585;SDS011;6358;50.760;0.282;2023-04-01T14:10:13;1.07;;;0.97;;
12585;SDS011;6358;50.760;0.282;2023-04-01T14:26:21;1.20;;;1.10;;
12585;SDS011;6358;50.760;0.282;2023-04-01T14:31:38;3.40;;;1.20;;
12585;SDS011;6358;50.760;0.282;2023-04-01T14:47:22;1.37;;;1.03;;
12585;SDS011;6358;50.760;0.282;2023-04-01T14:49:51;1.00;;;0.90;;
12585;SDS011;6358;50.760;0.282;2023-04-01T14:52:23;1.17;;;1.03;;
12585;SDS011;6358;50.760;0.282;2023-04-01T14:54:50;1.00;;;0.97;;
12585;SDS011;6358;50.760;0.282;2023-04-01T14:57:24;2.57;;;1.20;;
12585;SDS011;6358;50.760;0.282;2023-04-01T14:59:52;1.67;;;1.00;;
12585;SDS011;6358;50.760;0.282;2023-04-01T15:05:36;1.10;;;1.00;;
12585;SDS011;6358;50.760;0.282;2023-04-01T15:10:36;5.37;;;1.20;;
12585;SDS011;6358;50.760;0.282;2023-04-01T15:18:17;2.03;;;1.03;;
12585;SDS011;6358;50.760;0.282;2023-04-01T15:35:49;3.03;;;1.30;;
12585;SDS011;6358;50.760;0.282;2023-04-01T15:38:30;1.63;;;0.90;;
12585;SDS011;6358;50.760;0.282;2023-04-01T15:41:13;3.40;;;1.30;;
12585;SDS011;6358;50.760;0.282;2023-04-01T15:43:41;1.00;;;1.00;;
12585;SDS011;6358;50.760;0.282;2023-04-01T15:48:46;1.83;;;1.07;;
12585;SDS011;6358;50.760;0.282;2023-04-01T15:53:54;2.03;;;1.27;;
12585;SDS011;6358;50.760;0.282;2023-04-01T15:56:45;1.93;;;1.13;;
12585;SDS011;6358;50.760;0.282;2023-04-01T16:12:18;3.50;;;1.20;;
12585;SDS011;6358;50.760;0.282;2023-04-01T16:17:19;1.27;;;1.13;;
12585;SDS011;6358;50.760;0.282;2023-04-01T16:20:13;2.23;;;1.20;;
12585;SDS011;6358;50.760;0.282;2023-04-01T16:25:17;3.80;;;1.30;;
12585;SDS011;6358;50.760;0.282;2023-04-01T16:27:53;1.10;;;1.10;;
12585;SDS011;6358;50.760;0.282;2023-04-01T16:51:15;1.03;;;0.93;;
12585;SDS011;6358;50.760;0.282;2023-04-01T16:56:13;1.43;;;1.33;;
12585;SDS011;6358;50.760;0.282;2023-04-01T16:58:42;1.20;;;1.10;;
12585;SDS011;6358;50.760;0.282;2023-04-01T17:01:14;2.60;;;1.20;;
12585;SDS011;6358;50.760;0.282;2023-04-01T17:03:45;1.20;;;1.10;;
12585;SDS011;6358;50.760;0.282;2023-04-01T17:06:15;1.13;;;1.03;;
12585;SDS011;6358;50.760;0.282;2023-04-01T17:14:12;1.33;;;1.13;;
12585;SDS011;6358;50.760;0.282;2023-04-01T17:16:59;1.40;;;1.10;;
12585;SDS011;6358;50.760;0.282;2023-04-01T17:19:41;3.57;;;1.23;;
12585;SDS011;6358;50.760;0.282;2023-04-01T17:22:22;1.10;;;1.00;;
12585;SDS011;6358;50.760;0.282;2023-04-01T17:29:59;2.73;;;1.10;;
12585;SDS011;6358;50.760;0.282;2023-04-01T17:35:14;1.77;;;1.00;;
12585;SDS011;6358;50.760;0.282;2023-04-01T17:37:45;2.07;;;1.23;;
12585;SDS011;6358;50.760;0.282;2023-04-01T17:42:46;1.20;;;1.00;;
12585;SDS011;6358;50.760;0.282;2023-04-01T17:53:24;1.77;;;1.03;;
12585;SDS011;6358;50.760;0.282;2023-04-01T18:01:36;1.33;;;1.20;;
12585;SDS011;6358;50.760;0.282;2023-04-01T18:04:17;1.50;;;1.37;;
12585;SDS011;6358;50.760;0.282;2023-04-01T18:17:02;2.17;;;1.90;;
12585;SDS011;6358;50.760;0.282;2023-04-01T18:19:36;5.47;;;2.60;;
12585;SDS011;6358;50.760;0.282;2023-04-01T18:27:03;68.60;;;49.90;;
12585;SDS011;6358;50.760;0.282;2023-04-01T18:29:49;94.17;;;69.03;;
12585;SDS011;6358;50.760;0.282;2023-04-01T18:37:37;73.27;;;54.30;;
12585;SDS011;6358;50.760;0.282;2023-04-01T18:40:22;68.73;;;49.70;;
12585;SDS011;6358;50.760;0.282;2023-04-01T18:48:03;103.10;;;71.13;;
12585;SDS011;6358;50.760;0.282;2023-04-01T18:53:16;94.80;;;62.97;;
12585;SDS011;6358;50.760;0.282;2023-04-01T18:55:46;95.17;;;61.87;;
12585;SDS011;6358;50.760;0.282;2023-04-01T18:58:23;91.53;;;61.30;;
12585;SDS011;6358;50.760;0.282;2023-04-01T19:03:51;76.27;;;54.17;;
12585;SDS011;6358;50.760;0.282;2023-04-01T19:06:21;79.67;;;53.97;;
12585;SDS011;6358;50.760;0.282;2023-04-01T19:08:48;81.10;;;53.23;;
12585;SDS011;6358;50.760;0.282;2023-04-01T19:11:20;71.73;;;51.87;;
12585;SDS011;6358;50.760;0.282;2023-04-01T19:13:55;69.90;;;48.30;;
12585;SDS011;6358;50.760;0.282;2023-04-01T19:19:19;60.40;;;44.40;;
12585;SDS011;6358;50.760;0.282;2023-04-01T19:22:01;57.83;;;42.33;;
12585;SDS011;6358;50.760;0.282;2023-04-01T19:24:35;57.43;;;40.77;;
12585;SDS011;6358;50.760;0.282;2023-04-01T19:27:18;57.83;;;40.63;;
12585;SDS011;6358;50.760;0.282;2023-04-01T19:32:32;54.97;;;38.90;;
12585;SDS011;6358;50.760;0.282;2023-04-01T19:35:08;48.10;;;35.37;;
12585;SDS011;6358;50.760;0.282;2023-04-01T19:37:40;50.27;;;35.77;;
12585;SDS011;6358;50.760;0.282;2023-04-01T19:47:54;41.50;;;31.60;;
12585;SDS011;6358;50.760;0.282;2023-04-01T19:52:49;38.03;;;28.53;;
12585;SDS011;6358;50.760;0.282;2023-04-01T19:55:32;36.87;;;27.40;;
12585;SDS011;6358;50.760;0.282;2023-04-01T20:00:31;34.97;;;26.60;;
12585;SDS011;6358;50.760;0.282;2023-04-01T20:03:01;34.17;;;26.17;;
12585;SDS011;6358;50.760;0.282;2023-04-01T20:08:00;31.50;;;23.53;;
12585;SDS011;6358;50.760;0.282;2023-04-01T20:16:02;31.70;;;23.77;;
12585;SDS011;6358;50.760;0.282;2023-04-01T20:23:59;27.57;;;20.40;;
12585;SDS011;6358;50.760;0.282;2023-04-01T20:26:30;27.67;;;19.67;;
12585;SDS011;6358;50.760;0.282;2023-04-01T20:31:26;25.97;;;19.43;;
12585;SDS011;6358;50.760;0.282;2023-04-01T20:39:28;21.27;;;17.07;;
12585;SDS011;6358;50.760;0.282;2023-04-01T20:49:33;21.13;;;15.70;;
12585;SDS011;6358;50.760;0.282;2023-04-01T20:57:21;16.33;;;13.50;;
12585;SDS011;6358;50.760;0.282;2023-04-01T21:07:56;17.73;;;13.27;;
12585;SDS011;6358;50.760;0.282;2023-04-01T21:12:56;14.37;;;11.57;;
12585;SDS011;6358;50.760;0.282;2023-04-01T21:18:18;13.80;;;11.30;;
12585;SDS011;6358;50.760;0.282;2023-04-01T21:25:59;13.80;;;10.57;;
12585;SDS011;6358;50.760;0.282;2023-04-01T21:28:31;12.10;;;9.87;;
12585;SDS011;6358;50.760;0.282;2023-04-01T22:11:45;8.03;;;6.10;;
12585;SDS011;6358;50.760;0.282;2023-04-01T22:14:24;8.10;;;6.80;;
12585;SDS011;6358;50.760;0.282;2023-04-01T22:16:57;9.47;;;6.67;;
12585;SDS011;6358;50.760;0.282;2023-04-01T22:30:15;5.87;;;5.20;;
12585;SDS011;6358;50.760;0.282;2023-04-01T22:32:45;5.87;;;5.17;;
12585;SDS011;6358;50.760;0.282;2023-04-01T22:40:24;6.03;;;4.93;;
12585;SDS011;6358;50.760;0.282;2023-04-01T22:46:00;5.10;;;4.40;;
12585;SDS011;6358;50.760;0.282;2023-04-01T22:48:36;5.87;;;4.67;;
12585;SDS011;6358;50.760;0.282;2023-04-01T22:51:07;5.63;;;4.47;;
12585;SDS011;6358;50.760;0.282;2023-04-01T22:56:27;7.97;;;4.17;;
12585;SDS011;6358;50.760;0.282;2023-04-01T22:59:04;5.10;;;4.13;;
12585;SDS011;6358;50.760;0.282;2023-04-01T23:01:33;6.67;;;4.47;;
12585;SDS011;6358;50.760;0.282;2023-04-01T23:04:03;5.57;;;3.90;;
12585;SDS011;6358;50.760;0.282;2023-04-01T23:06:34;4.63;;;3.60;;
12585;SDS011;6358;50.760;0.282;2023-04-01T23:09:08;4.57;;;3.70;;
12585;SDS011;6358;50.760;0.282;2023-04-01T23:12:17;5.57;;;3.70;;
12585;SDS011;6358;50.760;0.282;2023-04-01T23:14:35;5.37;;;3.03;;
12585;SDS011;6358;50.760;0.282;2023-04-01T23:19:40;5.57;;;3.60;;
12585;SDS011;6358;50.760;0.282;2023-04-01T23:22:12;5.47;;;3.20;;
12585;SDS011;6358;50.760;0.282;2023-04-01T23:24:44;3.47;;;3.10;;
12585;SDS011;6358;50.760;0.282;2023-04-01T23:27:28;4.67;;;2.80;;
12585;SDS011;6358;50.760;0.282;2023-04-01T23:29:56;3.03;;;2.70;;
12585;SDS011;6358;50.760;0.282;2023-04-01T23:32:22;3.10;;;2.50;;
12585;SDS011;6358;50.760;0.282;2023-04-01T23:34:58;3.47;;;2.90;;
12585;SDS011;6358;50.760;0.282;2023-04-01T23:37:25;3.03;;;2.73;;
12585;SDS011;6358;50.760;0.282;2023-04-01T23:39:52;3.33;;;2.50;;
12585;SDS011;6358;50.760;0.282;2023-04-01T23:42:26;3.03;;;2.50;;
12585;SDS011;6358;50.760;0.282;2023-04-01T23:44:54;3.90;;;2.87;;
12585;SDS011;6358;50.760;0.282;2023-04-01T23:47:26;2.57;;;2.30;;
12585;SDS011;6358;50.760;0.282;2023-04-01T23:49:55;2.83;;;2.47;;
12585;SDS011;6358;50.760;0.282;2023-04-01T23:52:42;2.10;;;1.90;;
12585;SDS011;6358;50.760;0.282;2023-04-01T23:55:17;2.37;;;2.07;;
12585;SDS011;6358;50.760;0.282;2023-04-01T23:58:00;2.33;;;2.10;;
